首页
METAR-TAF:

METAR-TAF

机场 :

Brooks County Airport

Falfurrias, 得克萨斯州, 美国

纬度: 27-12-24N, 经度: 098-07-16W, 海拔: 34米

当前天气观测

该预报发布于24分钟前的15:35 UTC
风速5节,风向
温度 31°C
湿度 79%
气压 1014 hPa
能見度: 9.7公里
少量云层高于2000英尺

METAR: KBKS 241535Z AUTO 09005KT 6SM HZ FEW020 31/27 A2994 RMK AO2 SLP099 T03060268 $

时间: 10:59 (15:59 UTC)


TAF: 丢失

超过4000个机场的气象观测和天气预报(METAR&TAF报告)。

可查询的气象台以黄色和红色小点在地图上表示。

将鼠标移到小点上方,可查看气象台名称。

然后点击查看天气观测和预报。

如需切换地图:点击带黑十字的绿色按钮放大地图;点击带横线的绿色按钮缩小地图;或者点击绿色箭头查看邻近地区的地图。


METAR-TAF: